EVA396 VVTS-RCTP
Flight info
| Callsign | EVA396 |
|---|---|
| Flight time | 2h 41m |
| Altitude | 35000 |
| Route | PATMA5B PATMA W12 PCA G221 BUNTA A1 IKELA/N0484F350 DCT MORTU DCT NOBAD DCT KAPLI DCT TONGA TONGA1A |
| Aircraft | B77W/H-SDE1E2E3FGHIJ1J3J4J5LM1P2RWXYZ/LB1D1 |
Departure
| Time | 2026-05-05 12:27 |
|---|---|
| Airport | Tan Son Nhat International Airport (VVTS) |
Arrival
| Time | 2026-05-05 15:08 |
|---|---|
| Airport | Taiwan Taoyuan International Airport (RCTP) |
| Time | Latitude | Longitude | Altitude | Speed | Heading |
|---|---|---|---|---|---|
| 2026-05-05 11:57 | 10.81712 | 106.66245 | 42 ft | 0 kts | 158° |
| 2026-05-05 12:16 | 10.81721 | 106.66241 | 41 ft | 3 kts | 158° |
| 2026-05-05 12:16 | 10.81740 | 106.66234 | 40 ft | 3 kts | 160° |
| 2026-05-05 12:16 | 10.81760 | 106.66227 | 39 ft | 3 kts | 159° |
| 2026-05-05 12:16 | 10.81776 | 106.66220 | 39 ft | 3 kts | 147° |
| 2026-05-05 12:17 | 10.81790 | 106.66207 | 37 ft | 3 kts | 108° |
| 2026-05-05 12:17 | 10.81792 | 106.66188 | 39 ft | 3 kts | 75° |
| 2026-05-05 12:17 | 10.81785 | 106.66169 | 37 ft | 3 kts | 65° |
| 2026-05-05 12:17 | 10.81778 | 106.66153 | 39 ft | 0 kts | 69° |
| 2026-05-05 12:20 | 10.81783 | 106.66168 | 38 ft | 8 kts | 69° |
| 2026-05-05 12:20 | 10.81807 | 106.66231 | 39 ft | 9 kts | 69° |
| 2026-05-05 12:21 | 10.81831 | 106.66293 | 42 ft | 9 kts | 69° |
| 2026-05-05 12:21 | 10.81855 | 106.66356 | 42 ft | 9 kts | 69° |
| 2026-05-05 12:21 | 10.81878 | 106.66418 | 42 ft | 9 kts | 69° |
| 2026-05-05 12:21 | 10.81902 | 106.66480 | 42 ft | 9 kts | 69° |
| 2026-05-05 12:22 | 10.81926 | 106.66543 | 41 ft | 9 kts | 69° |
| 2026-05-05 12:22 | 10.81950 | 106.66606 | 41 ft | 9 kts | 69° |
| 2026-05-05 12:22 | 10.81974 | 106.66668 | 41 ft | 9 kts | 69° |
| 2026-05-05 12:22 | 10.81997 | 106.66731 | 42 ft | 9 kts | 69° |
| 2026-05-05 12:23 | 10.82021 | 106.66795 | 42 ft | 13 kts | 69° |
| 2026-05-05 12:23 | 10.82079 | 106.66901 | 40 ft | 16 kts | 43° |
| 2026-05-05 12:23 | 10.82127 | 106.66942 | 39 ft | 1 kts | 39° |
| 2026-05-05 12:23 | 10.82132 | 106.66946 | 39 ft | 1 kts | 39° |
| 2026-05-05 12:24 | 10.82139 | 106.66952 | 39 ft | 4 kts | 39° |
| 2026-05-05 12:24 | 10.82171 | 106.66979 | 40 ft | 8 kts | 39° |
| 2026-05-05 12:24 | 10.82216 | 106.67012 | 41 ft | 8 kts | 23° |
| 2026-05-05 12:24 | 10.82270 | 106.67002 | 40 ft | 8 kts | 335° |
| 2026-05-05 12:25 | 10.82320 | 106.66972 | 39 ft | 8 kts | 318° |
| 2026-05-05 12:25 | 10.82349 | 106.66921 | 39 ft | 8 kts | 283° |
| 2026-05-05 12:25 | 10.82335 | 106.66863 | 39 ft | 9 kts | 247° |
| 2026-05-05 12:25 | 10.82313 | 106.66804 | 38 ft | 9 kts | 250° |
| 2026-05-05 12:26 | 10.82283 | 106.66719 | 37 ft | 24 kts | 250° |
| 2026-05-05 12:26 | 10.82148 | 106.66363 | 37 ft | 91 kts | 249° |
| 2026-05-05 12:26 | 10.81836 | 106.65541 | 41 ft | 157 kts | 249° |
| 2026-05-05 12:26 | 10.81367 | 106.64346 | 67 ft | 202 kts | 250° |
| 2026-05-05 12:27 | 10.80836 | 106.63001 | 642 ft | 205 kts | 249° |
| 2026-05-05 12:27 | 10.80330 | 106.61641 | 1320 ft | 207 kts | 246° |
| 2026-05-05 12:27 | 10.79811 | 106.60263 | 1936 ft | 209 kts | 245° |
| 2026-05-05 12:27 | 10.79278 | 106.58833 | 2327 ft | 224 kts | 246° |
| 2026-05-05 12:28 | 10.78713 | 106.57331 | 2847 ft | 230 kts | 244° |
| 2026-05-05 12:28 | 10.77786 | 106.56034 | 3348 ft | 230 kts | 211° |
| 2026-05-05 12:28 | 10.76296 | 106.55603 | 3850 ft | 226 kts | 171° |
| 2026-05-05 12:28 | 10.74869 | 106.56173 | 4427 ft | 223 kts | 147° |
| 2026-05-05 12:29 | 10.73524 | 106.57027 | 4931 ft | 231 kts | 147° |
| 2026-05-05 12:29 | 10.72165 | 106.57891 | 5612 ft | 230 kts | 146° |
| 2026-05-05 12:29 | 10.70805 | 106.58751 | 6250 ft | 231 kts | 146° |
| 2026-05-05 12:29 | 10.69434 | 106.59614 | 6803 ft | 234 kts | 146° |
| 2026-05-05 12:30 | 10.68054 | 106.60481 | 7337 ft | 238 kts | 146° |
| 2026-05-05 12:30 | 10.66761 | 106.61495 | 7939 ft | 235 kts | 124° |
| 2026-05-05 12:30 | 10.66150 | 106.63006 | 8459 ft | 234 kts | 92° |
| 2026-05-05 12:30 | 10.66409 | 106.64655 | 8777 ft | 248 kts | 64° |
| 2026-05-05 12:31 | 10.67535 | 106.66052 | 8931 ft | 267 kts | 39° |
| 2026-05-05 12:31 | 10.69098 | 106.67174 | 9272 ft | 281 kts | 36° |
| 2026-05-05 12:31 | 10.70745 | 106.68299 | 9830 ft | 289 kts | 35° |
| 2026-05-05 12:31 | 10.72447 | 106.69450 | 10272 ft | 302 kts | 35° |
| 2026-05-05 12:32 | 10.74267 | 106.70681 | 10436 ft | 326 kts | 35° |
| 2026-05-05 12:32 | 10.76220 | 106.72005 | 10610 ft | 349 kts | 35° |
| 2026-05-05 12:32 | 10.78299 | 106.73420 | 10860 ft | 368 kts | 35° |
| 2026-05-05 12:32 | 10.80453 | 106.74890 | 11411 ft | 378 kts | 35° |
| 2026-05-05 12:33 | 10.82655 | 106.76397 | 12084 ft | 385 kts | 35° |
| 2026-05-05 12:33 | 10.84885 | 106.77926 | 12885 ft | 389 kts | 35° |
| 2026-05-05 12:33 | 10.87143 | 106.79478 | 13608 ft | 395 kts | 35° |
| 2026-05-05 12:33 | 10.89434 | 106.81054 | 14262 ft | 400 kts | 35° |
| 2026-05-05 12:34 | 10.91752 | 106.82650 | 14952 ft | 404 kts | 35° |
| 2026-05-05 12:34 | 10.94088 | 106.84259 | 15646 ft | 408 kts | 35° |
| 2026-05-05 12:34 | 10.96454 | 106.85890 | 16318 ft | 413 kts | 35° |
| 2026-05-05 12:34 | 10.98845 | 106.87537 | 16957 ft | 418 kts | 35° |
| 2026-05-05 12:35 | 11.01266 | 106.89207 | 17587 ft | 422 kts | 35° |
| 2026-05-05 12:35 | 11.03710 | 106.90893 | 18209 ft | 427 kts | 35° |
| 2026-05-05 12:35 | 11.06179 | 106.92596 | 18763 ft | 431 kts | 35° |
| 2026-05-05 12:35 | 11.08672 | 106.94316 | 19327 ft | 434 kts | 34° |
| 2026-05-05 12:36 | 11.11181 | 106.96048 | 19889 ft | 438 kts | 34° |
| 2026-05-05 12:36 | 11.13709 | 106.97793 | 20431 ft | 441 kts | 34° |
| 2026-05-05 12:36 | 11.16261 | 106.99555 | 20971 ft | 445 kts | 34° |
| 2026-05-05 12:36 | 11.18799 | 107.01307 | 21490 ft | 448 kts | 34° |
| 2026-05-05 12:37 | 11.21425 | 107.03121 | 22015 ft | 452 kts | 34° |
| 2026-05-05 12:37 | 11.24003 | 107.04902 | 22522 ft | 456 kts | 34° |
| 2026-05-05 12:37 | 11.26634 | 107.06719 | 23031 ft | 459 kts | 34° |
| 2026-05-05 12:37 | 11.29284 | 107.08552 | 23496 ft | 463 kts | 34° |
| 2026-05-05 12:38 | 11.31957 | 107.10399 | 23906 ft | 466 kts | 34° |
| 2026-05-05 12:38 | 11.34644 | 107.12257 | 24324 ft | 468 kts | 34° |
| 2026-05-05 12:38 | 11.37346 | 107.14126 | 24743 ft | 471 kts | 34° |
| 2026-05-05 12:38 | 11.40061 | 107.16005 | 25151 ft | 473 kts | 34° |
| 2026-05-05 12:39 | 11.42795 | 107.17896 | 25544 ft | 476 kts | 34° |
| 2026-05-05 12:39 | 11.45538 | 107.19795 | 25942 ft | 479 kts | 34° |
| 2026-05-05 12:39 | 11.48302 | 107.21709 | 26312 ft | 481 kts | 34° |
| 2026-05-05 12:39 | 11.51081 | 107.23633 | 26700 ft | 484 kts | 34° |
| 2026-05-05 12:40 | 11.53870 | 107.25565 | 27099 ft | 486 kts | 34° |
| 2026-05-05 12:40 | 11.56674 | 107.27507 | 27486 ft | 488 kts | 34° |
| 2026-05-05 12:40 | 11.59487 | 107.29456 | 27853 ft | 490 kts | 34° |
| 2026-05-05 12:40 | 11.62316 | 107.31417 | 28178 ft | 493 kts | 34° |
| 2026-05-05 12:41 | 11.65158 | 107.33388 | 28528 ft | 495 kts | 34° |
| 2026-05-05 12:41 | 11.68013 | 107.35368 | 28828 ft | 498 kts | 34° |
| 2026-05-05 12:41 | 11.70883 | 107.37359 | 29148 ft | 500 kts | 34° |
| 2026-05-05 12:41 | 11.73757 | 107.39353 | 29443 ft | 502 kts | 34° |
| 2026-05-05 12:42 | 11.76649 | 107.41360 | 29741 ft | 504 kts | 34° |
| 2026-05-05 12:42 | 11.79548 | 107.43373 | 30079 ft | 504 kts | 34° |
| 2026-05-05 12:42 | 11.82440 | 107.45381 | 30504 ft | 501 kts | 34° |
| 2026-05-05 12:42 | 11.85312 | 107.47376 | 30950 ft | 498 kts | 34° |
| 2026-05-05 12:43 | 11.88190 | 107.49375 | 31114 ft | 503 kts | 34° |
| 2026-05-05 12:43 | 11.91055 | 107.51367 | 31323 ft | 506 kts | 34° |
| 2026-05-05 12:43 | 11.93992 | 107.53408 | 31722 ft | 504 kts | 34° |
| 2026-05-05 12:43 | 11.96846 | 107.55393 | 32142 ft | 501 kts | 34° |
| 2026-05-05 12:44 | 11.99723 | 107.57394 | 32572 ft | 499 kts | 34° |
| 2026-05-05 12:44 | 12.02596 | 107.59393 | 32906 ft | 499 kts | 34° |
| 2026-05-05 12:44 | 12.05461 | 107.61387 | 33304 ft | 498 kts | 34° |
| 2026-05-05 12:44 | 12.08322 | 107.63378 | 33639 ft | 498 kts | 34° |
| 2026-05-05 12:45 | 12.11183 | 107.65370 | 34003 ft | 497 kts | 34° |
| 2026-05-05 12:45 | 12.14038 | 107.67358 | 34283 ft | 497 kts | 34° |
| 2026-05-05 12:45 | 12.16893 | 107.69347 | 34621 ft | 495 kts | 34° |
| 2026-05-05 12:45 | 12.19737 | 107.71330 | 34864 ft | 497 kts | 34° |
| 2026-05-05 12:46 | 12.25486 | 107.75338 | 34942 ft | 501 kts | 34° |
| 2026-05-05 12:46 | 12.31220 | 107.79337 | 34936 ft | 495 kts | 34° |
| 2026-05-05 12:47 | 12.36603 | 107.83690 | 34930 ft | 493 kts | 42° |
| 2026-05-05 12:47 | 12.41610 | 107.88490 | 34935 ft | 493 kts | 43° |
| 2026-05-05 12:48 | 12.46625 | 107.93295 | 34918 ft | 494 kts | 42° |
| 2026-05-05 12:48 | 12.51673 | 107.98078 | 34920 ft | 495 kts | 42° |
| 2026-05-05 12:49 | 12.56718 | 108.02846 | 34937 ft | 498 kts | 42° |
| 2026-05-05 12:49 | 12.61824 | 108.07679 | 34933 ft | 501 kts | 42° |
| 2026-05-05 12:50 | 12.66993 | 108.12484 | 34923 ft | 502 kts | 38° |
| 2026-05-05 12:50 | 12.72654 | 108.16643 | 34941 ft | 501 kts | 33° |
| 2026-05-05 12:51 | 12.78415 | 108.20651 | 34931 ft | 500 kts | 33° |
| 2026-05-05 12:51 | 12.84150 | 108.24681 | 34917 ft | 500 kts | 33° |
| 2026-05-05 12:52 | 12.88930 | 108.28074 | 34939 ft | 498 kts | 33° |
| 2026-05-05 12:52 | 12.94576 | 108.32093 | 34934 ft | 496 kts | 33° |
| 2026-05-05 12:53 | 13.00241 | 108.36127 | 34934 ft | 495 kts | 33° |
| 2026-05-05 12:53 | 13.05899 | 108.40155 | 34937 ft | 495 kts | 33° |
| 2026-05-05 12:54 | 13.14375 | 108.46194 | 34940 ft | 494 kts | 33° |
| 2026-05-05 12:55 | 13.20024 | 108.50221 | 34925 ft | 495 kts | 33° |
| 2026-05-05 12:55 | 13.25673 | 108.54253 | 34947 ft | 495 kts | 33° |
| 2026-05-05 12:56 | 13.31331 | 108.58291 | 34946 ft | 496 kts | 33° |
| 2026-05-05 12:56 | 13.37001 | 108.62332 | 34949 ft | 496 kts | 33° |
| 2026-05-05 12:57 | 13.42675 | 108.66374 | 34954 ft | 497 kts | 33° |
| 2026-05-05 12:57 | 13.48358 | 108.70428 | 34953 ft | 497 kts | 33° |
| 2026-05-05 12:58 | 13.54045 | 108.74486 | 34946 ft | 498 kts | 33° |
| 2026-05-05 12:58 | 13.59738 | 108.78552 | 34962 ft | 498 kts | 33° |
| 2026-05-05 12:59 | 13.65426 | 108.82618 | 34967 ft | 499 kts | 33° |
| 2026-05-05 12:59 | 13.71122 | 108.86692 | 34968 ft | 499 kts | 33° |
| 2026-05-05 13:00 | 13.79660 | 108.92803 | 34961 ft | 498 kts | 33° |
| 2026-05-05 13:01 | 13.91035 | 109.00950 | 34952 ft | 497 kts | 32° |
| 2026-05-05 13:01 | 13.97193 | 109.04054 | 34957 ft | 492 kts | 15° |
| 2026-05-05 13:02 | 14.03847 | 109.05437 | 34960 ft | 487 kts | 4° |
| 2026-05-05 13:02 | 14.10596 | 109.06179 | 34944 ft | 488 kts | 4° |
| 2026-05-05 13:03 | 14.17349 | 109.06934 | 34958 ft | 489 kts | 4° |
| 2026-05-05 13:03 | 14.24117 | 109.07734 | 34959 ft | 490 kts | 5° |
| 2026-05-05 13:04 | 14.30848 | 109.08551 | 34953 ft | 491 kts | 5° |
| 2026-05-05 13:04 | 14.37643 | 109.09379 | 34953 ft | 491 kts | 5° |
| 2026-05-05 13:05 | 14.44435 | 109.10205 | 34949 ft | 492 kts | 5° |
| 2026-05-05 13:05 | 14.51215 | 109.11028 | 34948 ft | 492 kts | 5° |
| 2026-05-05 13:06 | 14.58007 | 109.11854 | 34956 ft | 491 kts | 5° |
| 2026-05-05 13:06 | 14.64792 | 109.12679 | 34945 ft | 491 kts | 5° |
| 2026-05-05 13:07 | 14.71572 | 109.13504 | 34950 ft | 490 kts | 5° |
| 2026-05-05 13:07 | 14.78337 | 109.14328 | 34951 ft | 489 kts | 5° |
| 2026-05-05 13:08 | 14.85091 | 109.15151 | 34936 ft | 489 kts | 5° |
| 2026-05-05 13:08 | 14.91840 | 109.15974 | 34939 ft | 488 kts | 5° |
| 2026-05-05 13:09 | 14.98584 | 109.16796 | 34949 ft | 488 kts | 5° |
| 2026-05-05 13:09 | 15.05326 | 109.17619 | 34951 ft | 488 kts | 5° |
| 2026-05-05 13:10 | 15.12065 | 109.18442 | 34947 ft | 488 kts | 5° |
| 2026-05-05 13:10 | 15.18761 | 109.19261 | 34950 ft | 488 kts | 5° |
| 2026-05-05 13:11 | 15.25498 | 109.20085 | 34937 ft | 487 kts | 5° |
| 2026-05-05 13:11 | 15.32232 | 109.20909 | 34933 ft | 487 kts | 5° |
| 2026-05-05 13:12 | 15.38958 | 109.21733 | 34935 ft | 487 kts | 5° |
| 2026-05-05 13:12 | 15.45681 | 109.22557 | 34949 ft | 486 kts | 5° |
| 2026-05-05 13:13 | 15.52402 | 109.23381 | 34949 ft | 486 kts | 5° |
| 2026-05-05 13:13 | 15.59106 | 109.24204 | 34941 ft | 485 kts | 5° |
| 2026-05-05 13:14 | 15.65797 | 109.25024 | 34938 ft | 484 kts | 5° |
| 2026-05-05 13:14 | 15.72480 | 109.25842 | 34940 ft | 483 kts | 5° |
| 2026-05-05 13:15 | 15.79156 | 109.26660 | 34948 ft | 483 kts | 5° |
| 2026-05-05 13:15 | 15.85828 | 109.27478 | 34946 ft | 483 kts | 4° |
| 2026-05-05 13:16 | 15.92500 | 109.28297 | 34941 ft | 483 kts | 4° |
| 2026-05-05 13:16 | 15.99170 | 109.29116 | 34946 ft | 483 kts | 4° |
| 2026-05-05 13:17 | 16.05843 | 109.29937 | 34943 ft | 483 kts | 4° |
| 2026-05-05 13:17 | 16.12517 | 109.30758 | 34940 ft | 483 kts | 4° |
| 2026-05-05 13:18 | 16.19197 | 109.31580 | 34948 ft | 483 kts | 4° |
| 2026-05-05 13:18 | 16.25874 | 109.32402 | 34940 ft | 483 kts | 4° |
| 2026-05-05 13:19 | 16.32550 | 109.33225 | 34941 ft | 483 kts | 4° |
| 2026-05-05 13:19 | 16.39224 | 109.34048 | 34947 ft | 483 kts | 4° |
| 2026-05-05 13:20 | 16.45892 | 109.34871 | 34938 ft | 483 kts | 4° |
| 2026-05-05 13:20 | 16.52568 | 109.35696 | 34944 ft | 483 kts | 4° |
| 2026-05-05 13:21 | 16.59244 | 109.36521 | 34940 ft | 483 kts | 4° |
| 2026-05-05 13:21 | 16.65918 | 109.37347 | 34938 ft | 483 kts | 4° |
| 2026-05-05 13:22 | 16.72594 | 109.38173 | 34943 ft | 483 kts | 4° |
| 2026-05-05 13:22 | 16.79253 | 109.39078 | 34928 ft | 483 kts | 11° |
| 2026-05-05 13:23 | 16.82400 | 109.40352 | 34933 ft | 490 kts | 28° |
| 2026-05-05 13:23 | 16.85151 | 109.42475 | 34941 ft | 497 kts | 42° |
| 2026-05-05 13:23 | 16.87334 | 109.45285 | 34933 ft | 500 kts | 54° |
| 2026-05-05 13:23 | 16.89240 | 109.48328 | 34952 ft | 502 kts | 54° |
| 2026-05-05 13:24 | 16.93064 | 109.54470 | 34950 ft | 506 kts | 54° |
| 2026-05-05 13:24 | 16.96967 | 109.60610 | 34947 ft | 509 kts | 53° |
| 2026-05-05 13:25 | 17.00924 | 109.66744 | 34939 ft | 509 kts | 53° |
| 2026-05-05 13:25 | 17.04890 | 109.72874 | 34939 ft | 508 kts | 53° |
| 2026-05-05 13:26 | 17.08837 | 109.78988 | 34945 ft | 507 kts | 53° |
| 2026-05-05 13:26 | 17.12771 | 109.85092 | 34939 ft | 505 kts | 53° |
| 2026-05-05 13:27 | 17.16684 | 109.91170 | 34938 ft | 503 kts | 53° |
| 2026-05-05 13:27 | 17.20589 | 109.97240 | 34938 ft | 502 kts | 53° |
| 2026-05-05 13:28 | 17.24482 | 110.03297 | 34943 ft | 502 kts | 53° |
| 2026-05-05 13:28 | 17.28374 | 110.09357 | 34945 ft | 502 kts | 53° |
| 2026-05-05 13:29 | 17.32265 | 110.15423 | 34941 ft | 502 kts | 53° |
| 2026-05-05 13:29 | 17.36156 | 110.21495 | 34940 ft | 503 kts | 53° |
| 2026-05-05 13:30 | 17.40025 | 110.27536 | 34942 ft | 503 kts | 53° |
| 2026-05-05 13:30 | 17.43962 | 110.33661 | 34942 ft | 504 kts | 53° |
| 2026-05-05 13:31 | 17.47879 | 110.39681 | 34948 ft | 504 kts | 53° |
| 2026-05-05 13:31 | 17.51831 | 110.45752 | 34948 ft | 504 kts | 53° |
| 2026-05-05 13:32 | 17.55586 | 110.51538 | 34944 ft | 505 kts | 53° |
| 2026-05-05 13:32 | 17.59514 | 110.57602 | 34942 ft | 504 kts | 53° |
| 2026-05-05 13:33 | 17.63449 | 110.63684 | 34945 ft | 504 kts | 53° |
| 2026-05-05 13:33 | 17.67384 | 110.69771 | 34945 ft | 504 kts | 53° |
| 2026-05-05 13:34 | 17.71313 | 110.75853 | 34942 ft | 504 kts | 53° |
| 2026-05-05 13:34 | 17.75239 | 110.81937 | 34942 ft | 503 kts | 53° |
| 2026-05-05 13:35 | 17.79162 | 110.88022 | 34945 ft | 503 kts | 53° |
| 2026-05-05 13:35 | 17.83082 | 110.94106 | 34949 ft | 503 kts | 53° |
| 2026-05-05 13:36 | 17.86999 | 111.00191 | 34946 ft | 503 kts | 53° |
| 2026-05-05 13:36 | 17.90253 | 111.05252 | 34945 ft | 503 kts | 53° |
| 2026-05-05 13:37 | 17.94168 | 111.11346 | 34952 ft | 503 kts | 53° |
| 2026-05-05 13:37 | 17.98085 | 111.17448 | 34950 ft | 504 kts | 53° |
| 2026-05-05 13:38 | 18.01999 | 111.23551 | 34945 ft | 504 kts | 53° |
| 2026-05-05 13:38 | 18.05914 | 111.29662 | 34945 ft | 504 kts | 53° |
| 2026-05-05 13:39 | 18.09827 | 111.35774 | 34948 ft | 504 kts | 53° |
| 2026-05-05 13:39 | 18.13737 | 111.41889 | 34945 ft | 504 kts | 53° |
| 2026-05-05 13:40 | 18.17645 | 111.48006 | 34949 ft | 504 kts | 53° |
| 2026-05-05 13:40 | 18.21553 | 111.54128 | 34952 ft | 505 kts | 53° |
| 2026-05-05 13:41 | 18.25469 | 111.60268 | 34948 ft | 506 kts | 53° |
| 2026-05-05 13:41 | 18.29386 | 111.66417 | 34950 ft | 506 kts | 53° |
| 2026-05-05 13:42 | 18.33309 | 111.72581 | 34950 ft | 507 kts | 53° |
| 2026-05-05 13:42 | 18.37232 | 111.78750 | 34952 ft | 508 kts | 53° |
| 2026-05-05 13:43 | 18.41156 | 111.84930 | 34947 ft | 508 kts | 53° |
| 2026-05-05 13:43 | 18.45082 | 111.91114 | 34949 ft | 508 kts | 53° |
| 2026-05-05 13:44 | 18.49008 | 111.97307 | 34950 ft | 508 kts | 53° |
| 2026-05-05 13:44 | 18.52935 | 112.03506 | 34951 ft | 509 kts | 53° |
| 2026-05-05 13:45 | 18.56861 | 112.09712 | 34951 ft | 509 kts | 53° |
| 2026-05-05 13:45 | 18.60788 | 112.15925 | 34953 ft | 509 kts | 53° |
| 2026-05-05 13:46 | 18.64690 | 112.22103 | 34949 ft | 509 kts | 53° |
| 2026-05-05 13:46 | 18.68320 | 112.28530 | 34958 ft | 512 kts | 59° |
| 2026-05-05 13:47 | 18.71621 | 112.35238 | 34953 ft | 512 kts | 59° |
| 2026-05-05 13:47 | 18.74888 | 112.41914 | 34957 ft | 512 kts | 59° |
| 2026-05-05 13:48 | 18.78178 | 112.48575 | 34955 ft | 512 kts | 59° |
| 2026-05-05 13:48 | 18.81456 | 112.55179 | 34952 ft | 511 kts | 59° |
| 2026-05-05 13:49 | 18.84753 | 112.61820 | 34956 ft | 510 kts | 59° |
| 2026-05-05 13:49 | 18.88040 | 112.68453 | 34958 ft | 510 kts | 59° |
| 2026-05-05 13:50 | 18.91323 | 112.75091 | 34956 ft | 510 kts | 59° |
| 2026-05-05 13:50 | 18.94602 | 112.81726 | 34957 ft | 510 kts | 59° |
| 2026-05-05 13:51 | 18.97879 | 112.88366 | 34958 ft | 509 kts | 59° |
| 2026-05-05 13:51 | 19.01155 | 112.95009 | 34961 ft | 511 kts | 59° |
| 2026-05-05 13:52 | 19.04438 | 113.01674 | 34957 ft | 511 kts | 59° |
| 2026-05-05 13:52 | 19.07722 | 113.08350 | 34958 ft | 512 kts | 59° |
| 2026-05-05 13:53 | 19.11006 | 113.15034 | 34963 ft | 513 kts | 59° |
| 2026-05-05 13:53 | 19.14294 | 113.21732 | 34963 ft | 513 kts | 59° |
| 2026-05-05 13:54 | 19.17577 | 113.28428 | 34962 ft | 513 kts | 59° |
| 2026-05-05 13:54 | 19.20859 | 113.35132 | 34961 ft | 513 kts | 59° |
| 2026-05-05 13:55 | 19.24137 | 113.41834 | 34954 ft | 513 kts | 59° |
| 2026-05-05 13:55 | 19.27420 | 113.48551 | 34960 ft | 514 kts | 59° |
| 2026-05-05 13:56 | 19.30680 | 113.55231 | 34963 ft | 515 kts | 59° |
| 2026-05-05 13:56 | 19.33965 | 113.61969 | 34965 ft | 515 kts | 59° |
| 2026-05-05 13:57 | 19.37250 | 113.68716 | 34964 ft | 516 kts | 59° |
| 2026-05-05 13:57 | 19.40532 | 113.75466 | 34966 ft | 516 kts | 59° |
| 2026-05-05 13:58 | 19.43815 | 113.82224 | 34970 ft | 516 kts | 59° |
| 2026-05-05 13:58 | 19.47094 | 113.88981 | 34975 ft | 515 kts | 59° |
| 2026-05-05 13:59 | 19.52009 | 113.99126 | 34967 ft | 516 kts | 59° |
| 2026-05-05 14:00 | 19.56367 | 114.08138 | 34971 ft | 516 kts | 59° |
| 2026-05-05 14:00 | 19.60193 | 114.16059 | 34969 ft | 516 kts | 59° |
| 2026-05-05 14:01 | 19.63464 | 114.22841 | 34969 ft | 516 kts | 59° |
| 2026-05-05 14:01 | 19.66733 | 114.29627 | 34973 ft | 516 kts | 59° |
| 2026-05-05 14:02 | 19.69999 | 114.36414 | 34972 ft | 516 kts | 59° |
| 2026-05-05 14:02 | 19.73263 | 114.43204 | 34977 ft | 517 kts | 59° |
| 2026-05-05 14:03 | 19.76524 | 114.49994 | 34975 ft | 517 kts | 59° |
| 2026-05-05 14:03 | 19.79789 | 114.56801 | 34973 ft | 517 kts | 59° |
| 2026-05-05 14:04 | 19.83049 | 114.63610 | 34973 ft | 517 kts | 59° |
| 2026-05-05 14:04 | 19.86307 | 114.70421 | 34979 ft | 517 kts | 59° |
| 2026-05-05 14:05 | 19.89540 | 114.77188 | 34975 ft | 517 kts | 59° |
| 2026-05-05 14:05 | 19.92813 | 114.84048 | 34977 ft | 517 kts | 59° |
| 2026-05-05 14:06 | 19.96042 | 114.90824 | 34989 ft | 518 kts | 59° |
| 2026-05-05 14:06 | 19.99299 | 114.97665 | 34982 ft | 519 kts | 59° |
| 2026-05-05 14:07 | 20.02555 | 115.04512 | 34983 ft | 519 kts | 59° |
| 2026-05-05 14:07 | 20.05812 | 115.11372 | 34984 ft | 520 kts | 59° |
| 2026-05-05 14:08 | 20.09065 | 115.18232 | 34986 ft | 520 kts | 59° |
| 2026-05-05 14:08 | 20.12318 | 115.25100 | 34982 ft | 520 kts | 59° |
| 2026-05-05 14:09 | 20.15567 | 115.31968 | 34985 ft | 520 kts | 59° |
| 2026-05-05 14:09 | 20.18812 | 115.38838 | 34969 ft | 519 kts | 59° |
| 2026-05-05 14:10 | 20.22052 | 115.45705 | 34980 ft | 519 kts | 59° |
| 2026-05-05 14:10 | 20.25288 | 115.52568 | 34985 ft | 519 kts | 59° |
| 2026-05-05 14:11 | 20.28523 | 115.59431 | 34984 ft | 518 kts | 60° |
| 2026-05-05 14:11 | 20.31755 | 115.66297 | 34983 ft | 518 kts | 60° |
| 2026-05-05 14:12 | 20.34981 | 115.73159 | 34981 ft | 518 kts | 60° |
| 2026-05-05 14:12 | 20.38203 | 115.80021 | 34987 ft | 518 kts | 60° |
| 2026-05-05 14:13 | 20.41428 | 115.86901 | 34979 ft | 519 kts | 60° |
| 2026-05-05 14:13 | 20.44656 | 115.93793 | 34995 ft | 520 kts | 60° |
| 2026-05-05 14:14 | 20.47887 | 116.00702 | 34977 ft | 521 kts | 60° |
| 2026-05-05 14:14 | 20.51093 | 116.07567 | 34977 ft | 522 kts | 60° |
| 2026-05-05 14:15 | 20.54325 | 116.14495 | 35001 ft | 522 kts | 60° |
| 2026-05-05 14:15 | 20.57563 | 116.21446 | 34978 ft | 523 kts | 60° |
| 2026-05-05 14:16 | 20.60794 | 116.28389 | 34997 ft | 523 kts | 60° |
| 2026-05-05 14:16 | 20.64021 | 116.35335 | 34992 ft | 522 kts | 60° |
| 2026-05-05 14:17 | 20.67243 | 116.42278 | 34986 ft | 523 kts | 60° |
| 2026-05-05 14:17 | 20.70469 | 116.49238 | 34985 ft | 523 kts | 60° |
| 2026-05-05 14:18 | 20.73689 | 116.56195 | 34989 ft | 523 kts | 60° |
| 2026-05-05 14:18 | 20.76913 | 116.63167 | 34986 ft | 523 kts | 60° |
| 2026-05-05 14:19 | 20.80126 | 116.70126 | 34991 ft | 523 kts | 60° |
| 2026-05-05 14:19 | 20.83349 | 116.77117 | 34985 ft | 524 kts | 60° |
| 2026-05-05 14:20 | 20.86566 | 116.84103 | 35002 ft | 524 kts | 60° |
| 2026-05-05 14:20 | 20.89790 | 116.91112 | 34990 ft | 526 kts | 61° |
| 2026-05-05 14:21 | 20.93016 | 116.98137 | 34990 ft | 526 kts | 61° |
| 2026-05-05 14:21 | 20.96220 | 117.05123 | 34991 ft | 527 kts | 61° |
| 2026-05-05 14:22 | 20.99467 | 117.12212 | 34989 ft | 527 kts | 61° |
| 2026-05-05 14:22 | 21.02671 | 117.19217 | 34990 ft | 527 kts | 61° |
| 2026-05-05 14:23 | 21.05370 | 117.25124 | 34992 ft | 527 kts | 61° |
| 2026-05-05 14:23 | 21.09117 | 117.33336 | 34999 ft | 529 kts | 61° |
| 2026-05-05 14:24 | 21.11818 | 117.39266 | 35001 ft | 529 kts | 61° |
| 2026-05-05 14:24 | 21.15140 | 117.46298 | 34995 ft | 527 kts | 56° |
| 2026-05-05 14:25 | 21.19403 | 117.52627 | 34987 ft | 522 kts | 45° |
| 2026-05-05 14:25 | 21.24485 | 117.58112 | 35003 ft | 518 kts | 39° |
| 2026-05-05 14:26 | 21.29751 | 117.63386 | 35031 ft | 518 kts | 39° |
| 2026-05-05 14:26 | 21.34979 | 117.68657 | 35008 ft | 520 kts | 39° |
| 2026-05-05 14:27 | 21.40225 | 117.74005 | 35006 ft | 521 kts | 39° |
| 2026-05-05 14:27 | 21.45463 | 117.79373 | 35003 ft | 521 kts | 39° |
| 2026-05-05 14:28 | 21.50705 | 117.84751 | 34998 ft | 521 kts | 39° |
| 2026-05-05 14:28 | 21.55937 | 117.90121 | 35018 ft | 521 kts | 39° |
| 2026-05-05 14:29 | 21.61180 | 117.95505 | 35012 ft | 521 kts | 39° |
| 2026-05-05 14:29 | 21.66423 | 118.00895 | 35001 ft | 521 kts | 39° |
| 2026-05-05 14:30 | 21.71660 | 118.06285 | 35022 ft | 521 kts | 39° |
| 2026-05-05 14:30 | 21.76898 | 118.11682 | 35017 ft | 521 kts | 39° |
| 2026-05-05 14:31 | 21.82131 | 118.17079 | 35014 ft | 522 kts | 39° |
| 2026-05-05 14:31 | 21.87380 | 118.22498 | 35012 ft | 523 kts | 39° |
| 2026-05-05 14:32 | 21.92630 | 118.27925 | 35015 ft | 524 kts | 39° |
| 2026-05-05 14:32 | 21.97885 | 118.33362 | 35012 ft | 524 kts | 39° |
| 2026-05-05 14:33 | 22.03143 | 118.38809 | 35004 ft | 525 kts | 39° |
| 2026-05-05 14:33 | 22.08410 | 118.44271 | 35020 ft | 526 kts | 39° |
| 2026-05-05 14:34 | 22.13680 | 118.49741 | 35015 ft | 526 kts | 39° |
| 2026-05-05 14:34 | 22.18953 | 118.55221 | 35014 ft | 527 kts | 39° |
| 2026-05-05 14:35 | 22.24224 | 118.60707 | 35014 ft | 527 kts | 39° |
| 2026-05-05 14:35 | 22.29462 | 118.66162 | 35033 ft | 527 kts | 39° |
| 2026-05-05 14:36 | 22.34738 | 118.71662 | 35016 ft | 528 kts | 39° |
| 2026-05-05 14:36 | 22.40016 | 118.77171 | 35015 ft | 528 kts | 39° |
| 2026-05-05 14:37 | 22.45299 | 118.82692 | 35011 ft | 529 kts | 39° |
| 2026-05-05 14:37 | 22.50575 | 118.88213 | 35017 ft | 529 kts | 39° |
| 2026-05-05 14:38 | 22.55863 | 118.93751 | 35015 ft | 529 kts | 39° |
| 2026-05-05 14:38 | 22.61148 | 118.99292 | 35005 ft | 529 kts | 40° |
| 2026-05-05 14:39 | 22.66432 | 119.04839 | 35016 ft | 530 kts | 40° |
| 2026-05-05 14:39 | 22.71724 | 119.10401 | 35014 ft | 530 kts | 40° |
| 2026-05-05 14:40 | 22.77015 | 119.15968 | 35043 ft | 532 kts | 40° |
| 2026-05-05 14:40 | 22.82328 | 119.21563 | 35028 ft | 533 kts | 40° |
| 2026-05-05 14:41 | 22.87644 | 119.27170 | 35002 ft | 533 kts | 40° |
| 2026-05-05 14:41 | 22.92954 | 119.32777 | 35016 ft | 533 kts | 40° |
| 2026-05-05 14:42 | 22.98265 | 119.38390 | 35056 ft | 533 kts | 40° |
| 2026-05-05 14:42 | 23.03575 | 119.44009 | 35021 ft | 534 kts | 40° |
| 2026-05-05 14:43 | 23.08889 | 119.49640 | 35018 ft | 534 kts | 40° |
| 2026-05-05 14:43 | 23.14200 | 119.55275 | 34993 ft | 534 kts | 40° |
| 2026-05-05 14:44 | 23.19695 | 119.60647 | 35002 ft | 526 kts | 28° |
| 2026-05-05 14:44 | 23.26016 | 119.64550 | 35025 ft | 523 kts | 22° |
| 2026-05-05 14:45 | 23.32381 | 119.68303 | 35025 ft | 525 kts | 24° |
| 2026-05-05 14:45 | 23.38729 | 119.72273 | 35022 ft | 527 kts | 25° |
| 2026-05-05 14:46 | 23.45041 | 119.76296 | 34985 ft | 519 kts | 25° |
| 2026-05-05 14:46 | 23.48134 | 119.78259 | 34762 ft | 511 kts | 25° |
| 2026-05-05 14:46 | 23.51162 | 119.80238 | 34432 ft | 505 kts | 26° |
| 2026-05-05 14:47 | 23.54125 | 119.82268 | 34041 ft | 501 kts | 27° |
| 2026-05-05 14:47 | 23.57053 | 119.84313 | 33464 ft | 500 kts | 27° |
| 2026-05-05 14:47 | 23.59970 | 119.86358 | 32889 ft | 498 kts | 27° |
| 2026-05-05 14:47 | 23.62878 | 119.88390 | 32446 ft | 494 kts | 27° |
| 2026-05-05 14:48 | 23.65760 | 119.90393 | 32057 ft | 488 kts | 27° |
| 2026-05-05 14:48 | 23.68610 | 119.92367 | 31663 ft | 483 kts | 27° |
| 2026-05-05 14:48 | 23.71437 | 119.94319 | 31275 ft | 479 kts | 27° |
| 2026-05-05 14:48 | 23.74242 | 119.96254 | 30851 ft | 475 kts | 27° |
| 2026-05-05 14:49 | 23.77028 | 119.98175 | 30416 ft | 472 kts | 27° |
| 2026-05-05 14:49 | 23.79795 | 120.00085 | 29992 ft | 469 kts | 27° |
| 2026-05-05 14:49 | 23.82534 | 120.01978 | 29503 ft | 465 kts | 27° |
| 2026-05-05 14:49 | 23.85257 | 120.03862 | 29015 ft | 462 kts | 27° |
| 2026-05-05 14:50 | 23.87963 | 120.05734 | 28523 ft | 459 kts | 27° |
| 2026-05-05 14:50 | 23.90648 | 120.07593 | 28062 ft | 456 kts | 27° |
| 2026-05-05 14:50 | 23.93313 | 120.09440 | 27601 ft | 452 kts | 27° |
| 2026-05-05 14:50 | 23.95963 | 120.11277 | 27173 ft | 449 kts | 27° |
| 2026-05-05 14:51 | 23.98595 | 120.13102 | 26709 ft | 447 kts | 27° |
| 2026-05-05 14:51 | 24.01218 | 120.14921 | 26243 ft | 445 kts | 27° |
| 2026-05-05 14:51 | 24.03830 | 120.16734 | 25798 ft | 443 kts | 27° |
| 2026-05-05 14:51 | 24.06422 | 120.18534 | 25381 ft | 440 kts | 27° |
| 2026-05-05 14:52 | 24.09000 | 120.20326 | 24981 ft | 438 kts | 27° |
| 2026-05-05 14:52 | 24.11562 | 120.22106 | 24555 ft | 435 kts | 27° |
| 2026-05-05 14:52 | 24.14112 | 120.23880 | 24175 ft | 433 kts | 27° |
| 2026-05-05 14:52 | 24.16646 | 120.25643 | 23782 ft | 431 kts | 27° |
| 2026-05-05 14:53 | 24.19171 | 120.27401 | 23378 ft | 429 kts | 27° |
| 2026-05-05 14:53 | 24.21646 | 120.29125 | 22913 ft | 427 kts | 27° |
| 2026-05-05 14:53 | 24.24142 | 120.30864 | 22491 ft | 423 kts | 27° |
| 2026-05-05 14:53 | 24.26616 | 120.32590 | 22086 ft | 420 kts | 27° |
| 2026-05-05 14:54 | 24.29072 | 120.34304 | 21677 ft | 417 kts | 28° |
| 2026-05-05 14:54 | 24.31509 | 120.36004 | 21272 ft | 414 kts | 28° |
| 2026-05-05 14:54 | 24.33931 | 120.37695 | 20893 ft | 411 kts | 28° |
| 2026-05-05 14:54 | 24.36315 | 120.39362 | 20411 ft | 399 kts | 28° |
| 2026-05-05 14:55 | 24.38632 | 120.40985 | 19599 ft | 393 kts | 28° |
| 2026-05-05 14:55 | 24.40929 | 120.42591 | 18691 ft | 390 kts | 29° |
| 2026-05-05 14:55 | 24.43211 | 120.44185 | 17671 ft | 388 kts | 29° |
| 2026-05-05 14:55 | 24.45479 | 120.45771 | 16648 ft | 385 kts | 29° |
| 2026-05-05 14:56 | 24.47717 | 120.47337 | 15750 ft | 378 kts | 29° |
| 2026-05-05 14:56 | 24.49916 | 120.48877 | 14870 ft | 372 kts | 29° |
| 2026-05-05 14:56 | 24.52083 | 120.50396 | 14008 ft | 367 kts | 29° |
| 2026-05-05 14:56 | 24.54177 | 120.51866 | 13589 ft | 347 kts | 29° |
| 2026-05-05 14:57 | 24.56157 | 120.53258 | 13171 ft | 329 kts | 29° |
| 2026-05-05 14:57 | 24.58046 | 120.54584 | 12808 ft | 316 kts | 29° |
| 2026-05-05 14:57 | 24.59879 | 120.55868 | 12472 ft | 311 kts | 29° |
| 2026-05-05 14:57 | 24.61708 | 120.57148 | 12153 ft | 315 kts | 29° |
| 2026-05-05 14:58 | 24.63618 | 120.58483 | 11851 ft | 339 kts | 30° |
| 2026-05-05 14:58 | 24.65659 | 120.59914 | 11432 ft | 352 kts | 30° |
| 2026-05-05 14:58 | 24.67692 | 120.61364 | 11029 ft | 342 kts | 32° |
| 2026-05-05 14:58 | 24.69515 | 120.62966 | 10642 ft | 328 kts | 39° |
| 2026-05-05 14:59 | 24.71142 | 120.64605 | 10440 ft | 306 kts | 41° |
| 2026-05-05 14:59 | 24.72639 | 120.66147 | 10269 ft | 288 kts | 40° |
| 2026-05-05 14:59 | 24.73971 | 120.67869 | 9917 ft | 307 kts | 57° |
| 2026-05-05 14:59 | 24.75035 | 120.69949 | 9355 ft | 317 kts | 63° |
| 2026-05-05 15:00 | 24.76018 | 120.72119 | 8773 ft | 325 kts | 64° |
| 2026-05-05 15:00 | 24.76687 | 120.73610 | 8376 ft | 330 kts | 63° |
| 2026-05-05 15:00 | 24.78095 | 120.76671 | 7610 ft | 340 kts | 62° |
| 2026-05-05 15:00 | 24.79198 | 120.79004 | 7067 ft | 348 kts | 62° |
| 2026-05-05 15:01 | 24.80340 | 120.81381 | 6468 ft | 355 kts | 61° |
| 2026-05-05 15:01 | 24.81512 | 120.83793 | 5820 ft | 359 kts | 61° |
| 2026-05-05 15:01 | 24.82697 | 120.86220 | 5229 ft | 361 kts | 61° |
| 2026-05-05 15:01 | 24.83886 | 120.88654 | 4634 ft | 362 kts | 61° |
| 2026-05-05 15:02 | 24.85075 | 120.91085 | 4221 ft | 356 kts | 62° |
| 2026-05-05 15:02 | 24.86188 | 120.93363 | 3999 ft | 320 kts | 62° |
| 2026-05-05 15:02 | 24.87181 | 120.95395 | 3976 ft | 284 kts | 62° |
| 2026-05-05 15:02 | 24.88074 | 120.97221 | 3970 ft | 265 kts | 62° |
| 2026-05-05 15:03 | 24.88946 | 120.99009 | 3995 ft | 265 kts | 62° |
| 2026-05-05 15:03 | 24.89812 | 121.00784 | 3996 ft | 261 kts | 62° |
| 2026-05-05 15:03 | 24.90672 | 121.02542 | 3993 ft | 259 kts | 61° |
| 2026-05-05 15:03 | 24.91681 | 121.04175 | 3995 ft | 257 kts | 50° |
| 2026-05-05 15:04 | 24.92832 | 121.05626 | 3997 ft | 252 kts | 48° |
| 2026-05-05 15:04 | 24.93979 | 121.07040 | 3982 ft | 244 kts | 49° |
| 2026-05-05 15:04 | 24.95097 | 121.08443 | 3828 ft | 245 kts | 49° |
| 2026-05-05 15:04 | 24.96234 | 121.09879 | 3455 ft | 252 kts | 49° |
| 2026-05-05 15:05 | 24.98505 | 121.12756 | 2555 ft | 243 kts | 49° |
| 2026-05-05 15:05 | 24.99592 | 121.14129 | 2152 ft | 229 kts | 50° |
| 2026-05-05 15:05 | 25.00589 | 121.15392 | 1741 ft | 207 kts | 50° |
| 2026-05-05 15:06 | 25.01481 | 121.16523 | 1488 ft | 183 kts | 50° |
| 2026-05-05 15:06 | 25.02279 | 121.17530 | 1426 ft | 171 kts | 49° |
| 2026-05-05 15:06 | 25.03046 | 121.18500 | 1053 ft | 161 kts | 50° |
| 2026-05-05 15:06 | 25.03747 | 121.19397 | 809 ft | 151 kts | 50° |
| 2026-05-05 15:07 | 25.04435 | 121.20280 | 597 ft | 151 kts | 49° |
| 2026-05-05 15:07 | 25.05123 | 121.21146 | 406 ft | 151 kts | 49° |
| 2026-05-05 15:07 | 25.05810 | 121.22018 | 223 ft | 151 kts | 48° |
| 2026-05-05 15:07 | 25.06500 | 121.22884 | 100 ft | 146 kts | 49° |
| 2026-05-05 15:08 | 25.07071 | 121.23607 | 101 ft | 99 kts | 49° |
| 2026-05-05 15:08 | 25.07363 | 121.23980 | 100 ft | 42 kts | 49° |
| 2026-05-05 15:08 | 25.07522 | 121.24146 | 100 ft | 26 kts | 35° |
| 2026-05-05 15:08 | 25.07635 | 121.24205 | 102 ft | 17 kts | 21° |
| 2026-05-05 15:09 | 25.07726 | 121.24241 | 104 ft | 11 kts | 19° |
| 2026-05-05 15:09 | 25.07798 | 121.24268 | 105 ft | 11 kts | 19° |
| 2026-05-05 15:09 | 25.07871 | 121.24278 | 105 ft | 11 kts | 335° |
| 2026-05-05 15:09 | 25.07915 | 121.24239 | 108 ft | 5 kts | 320° |
| 2026-05-05 15:10 | 25.07929 | 121.24226 | 107 ft | 0 kts | 320° |
| 2026-05-05 15:10 | 25.07937 | 121.24218 | 108 ft | 7 kts | 320° |
| 2026-05-05 15:10 | 25.07985 | 121.24150 | 108 ft | 13 kts | 276° |
| 2026-05-05 15:11 | 25.07939 | 121.24069 | 108 ft | 13 kts | 229° |
| 2026-05-05 15:11 | 25.07901 | 121.24020 | 106 ft | 13 kts | 229° |
| 2026-05-05 15:11 | 25.07843 | 121.23946 | 108 ft | 13 kts | 229° |
| 2026-05-05 15:11 | 25.07767 | 121.23848 | 107 ft | 13 kts | 229° |
| 2026-05-05 15:12 | 25.07728 | 121.23798 | 108 ft | 13 kts | 229° |
| 2026-05-05 15:12 | 25.07671 | 121.23724 | 108 ft | 13 kts | 229° |
| 2026-05-05 15:12 | 25.07613 | 121.23651 | 106 ft | 13 kts | 229° |
| 2026-05-05 15:12 | 25.07537 | 121.23553 | 108 ft | 13 kts | 229° |
| 2026-05-05 15:13 | 25.07486 | 121.23487 | 108 ft | 7 kts | 229° |
| 2026-05-05 15:13 | 25.07480 | 121.23453 | 109 ft | 7 kts | 291° |
| 2026-05-05 15:13 | 25.07515 | 121.23413 | 108 ft | 6 kts | 319° |
| 2026-05-05 15:13 | 25.07538 | 121.23391 | 109 ft | 4 kts | 319° |
| 2026-05-05 15:14 | 25.07550 | 121.23380 | 107 ft | 1 kts | 320° |
| 2026-05-05 15:14 | 25.07552 | 121.23378 | 107 ft | 0 kts | 319° |